sensor_id;sensor_type;location;lat;lon;timestamp;P1;durP1;ratioP1;P2;durP2;ratioP2
23543;SDS011;11950;51.230;4.012;2023-07-28T00:01:51;4.10;;;2.53;;
23543;SDS011;11950;51.230;4.012;2023-07-28T00:04:17;3.75;;;2.90;;
23543;SDS011;11950;51.230;4.012;2023-07-28T00:06:44;2.58;;;2.28;;
23543;SDS011;11950;51.230;4.012;2023-07-28T00:09:10;4.22;;;2.40;;
23543;SDS011;11950;51.230;4.012;2023-07-28T00:11:37;4.38;;;2.85;;
23543;SDS011;11950;51.230;4.012;2023-07-28T00:14:03;5.65;;;2.38;;
23543;SDS011;11950;51.230;4.012;2023-07-28T00:16:29;2.63;;;2.33;;
23543;SDS011;11950;51.230;4.012;2023-07-28T00:18:55;3.67;;;2.17;;
23543;SDS011;11950;51.230;4.012;2023-07-28T00:21:22;2.40;;;2.22;;
23543;SDS011;11950;51.230;4.012;2023-07-28T00:23:48;5.80;;;2.15;;
23543;SDS011;11950;51.230;4.012;2023-07-28T00:26:14;2.58;;;2.30;;
23543;SDS011;11950;51.230;4.012;2023-07-28T00:28:40;2.45;;;2.20;;
23543;SDS011;11950;51.230;4.012;2023-07-28T00:31:07;3.30;;;2.30;;
23543;SDS011;11950;51.230;4.012;2023-07-28T00:33:33;4.47;;;2.40;;
23543;SDS011;11950;51.230;4.012;2023-07-28T00:35:59;2.80;;;2.33;;
23543;SDS011;11950;51.230;4.012;2023-07-28T00:38:25;3.70;;;2.25;;
23543;SDS011;11950;51.230;4.012;2023-07-28T00:40:55;5.88;;;2.45;;
23543;SDS011;11950;51.230;4.012;2023-07-28T00:43:24;3.20;;;2.60;;
23543;SDS011;11950;51.230;4.012;2023-07-28T00:45:50;4.15;;;2.53;;
23543;SDS011;11950;51.230;4.012;2023-07-28T00:48:17;6.75;;;2.03;;
23543;SDS011;11950;51.230;4.012;2023-07-28T00:50:46;6.53;;;2.47;;
23543;SDS011;11950;51.230;4.012;2023-07-28T00:53:14;4.15;;;2.03;;
23543;SDS011;11950;51.230;4.012;2023-07-28T00:55:41;3.55;;;2.45;;
23543;SDS011;11950;51.230;4.012;2023-07-28T00:58:10;5.38;;;2.35;;
23543;SDS011;11950;51.230;4.012;2023-07-28T01:00:37;5.50;;;3.17;;
23543;SDS011;11950;51.230;4.012;2023-07-28T01:03:03;3.40;;;2.22;;
23543;SDS011;11950;51.230;4.012;2023-07-28T01:06:13;5.60;;;2.33;;
23543;SDS011;11950;51.230;4.012;2023-07-28T01:11:05;2.55;;;2.33;;
23543;SDS011;11950;51.230;4.012;2023-07-28T01:13:31;9.75;;;2.47;;
23543;SDS011;11950;51.230;4.012;2023-07-28T01:15:58;6.20;;;2.30;;
23543;SDS011;11950;51.230;4.012;2023-07-28T01:18:27;4.38;;;2.70;;
23543;SDS011;11950;51.230;4.012;2023-07-28T01:20:54;4.18;;;2.38;;
23543;SDS011;11950;51.230;4.012;2023-07-28T01:25:58;3.75;;;2.83;;
23543;SDS011;11950;51.230;4.012;2023-07-28T01:28:35;5.63;;;3.05;;
23543;SDS011;11950;51.230;4.012;2023-07-28T01:31:02;9.70;;;2.65;;
23543;SDS011;11950;51.230;4.012;2023-07-28T01:33:30;4.22;;;2.75;;
23543;SDS011;11950;51.230;4.012;2023-07-28T01:35:56;3.92;;;2.55;;
23543;SDS011;11950;51.230;4.012;2023-07-28T01:38:24;6.15;;;3.05;;
23543;SDS011;11950;51.230;4.012;2023-07-28T01:40:51;8.30;;;2.78;;
23543;SDS011;11950;51.230;4.012;2023-07-28T01:43:17;5.15;;;2.92;;
23543;SDS011;11950;51.230;4.012;2023-07-28T01:45:43;4.40;;;2.38;;
23543;SDS011;11950;51.230;4.012;2023-07-28T01:48:09;6.00;;;2.78;;
23543;SDS011;11950;51.230;4.012;2023-07-28T01:50:36;6.28;;;2.88;;
23543;SDS011;11950;51.230;4.012;2023-07-28T01:53:03;5.60;;;2.45;;
23543;SDS011;11950;51.230;4.012;2023-07-28T01:55:31;4.85;;;2.53;;
23543;SDS011;11950;51.230;4.012;2023-07-28T01:57:58;4.97;;;2.60;;
23543;SDS011;11950;51.230;4.012;2023-07-28T02:00:26;5.47;;;3.00;;
23543;SDS011;11950;51.230;4.012;2023-07-28T02:02:52;7.85;;;2.40;;
23543;SDS011;11950;51.230;4.012;2023-07-28T02:05:19;2.88;;;2.15;;
23543;SDS011;11950;51.230;4.012;2023-07-28T02:07:46;4.43;;;2.65;;
23543;SDS011;11950;51.230;4.012;2023-07-28T02:10:12;3.65;;;2.53;;
23543;SDS011;11950;51.230;4.012;2023-07-28T02:12:39;3.80;;;2.63;;
23543;SDS011;11950;51.230;4.012;2023-07-28T02:15:06;5.38;;;2.60;;
23543;SDS011;11950;51.230;4.012;2023-07-28T02:17:33;5.57;;;2.50;;
23543;SDS011;11950;51.230;4.012;2023-07-28T02:19:59;5.75;;;2.35;;
23543;SDS011;11950;51.230;4.012;2023-07-28T02:22:26;4.45;;;2.35;;
23543;SDS011;11950;51.230;4.012;2023-07-28T02:24:53;6.55;;;3.03;;
23543;SDS011;11950;51.230;4.012;2023-07-28T02:27:19;5.63;;;2.78;;
23543;SDS011;11950;51.230;4.012;2023-07-28T02:29:47;6.28;;;2.72;;
23543;SDS011;11950;51.230;4.012;2023-07-28T02:32:13;6.40;;;2.85;;
23543;SDS011;11950;51.230;4.012;2023-07-28T02:34:40;6.15;;;2.88;;
23543;SDS011;11950;51.230;4.012;2023-07-28T02:37:06;6.65;;;2.60;;
23543;SDS011;11950;51.230;4.012;2023-07-28T02:39:32;4.38;;;3.08;;
23543;SDS011;11950;51.230;4.012;2023-07-28T02:41:59;9.63;;;3.05;;
23543;SDS011;11950;51.230;4.012;2023-07-28T02:44:25;7.07;;;3.55;;
23543;SDS011;11950;51.230;4.012;2023-07-28T02:46:51;6.88;;;4.10;;
23543;SDS011;11950;51.230;4.012;2023-07-28T02:49:18;5.30;;;3.55;;
23543;SDS011;11950;51.230;4.012;2023-07-28T02:51:44;6.82;;;3.58;;
23543;SDS011;11950;51.230;4.012;2023-07-28T02:54:10;7.05;;;3.72;;
23543;SDS011;11950;51.230;4.012;2023-07-28T02:56:37;9.98;;;4.25;;
23543;SDS011;11950;51.230;4.012;2023-07-28T02:59:07;6.22;;;4.53;;
23543;SDS011;11950;51.230;4.012;2023-07-28T03:01:34;9.77;;;4.97;;
23543;SDS011;11950;51.230;4.012;2023-07-28T03:04:01;13.02;;;6.18;;
23543;SDS011;11950;51.230;4.012;2023-07-28T03:06:33;11.50;;;5.85;;
23543;SDS011;11950;51.230;4.012;2023-07-28T03:09:00;13.50;;;6.03;;
23543;SDS011;11950;51.230;4.012;2023-07-28T03:11:44;9.55;;;6.47;;
23543;SDS011;11950;51.230;4.012;2023-07-28T03:14:10;10.93;;;7.82;;
23543;SDS011;11950;51.230;4.012;2023-07-28T03:16:38;18.20;;;11.32;;
23543;SDS011;11950;51.230;4.012;2023-07-28T03:19:05;19.27;;;12.68;;
23543;SDS011;11950;51.230;4.012;2023-07-28T03:21:32;25.58;;;15.65;;
23543;SDS011;11950;51.230;4.012;2023-07-28T03:23:59;23.42;;;15.88;;
23543;SDS011;11950;51.230;4.012;2023-07-28T03:26:25;30.42;;;18.02;;
23543;SDS011;11950;51.230;4.012;2023-07-28T03:28:52;27.77;;;16.77;;
23543;SDS011;11950;51.230;4.012;2023-07-28T03:31:18;25.90;;;16.48;;
23543;SDS011;11950;51.230;4.012;2023-07-28T03:33:44;29.77;;;18.35;;
23543;SDS011;11950;51.230;4.012;2023-07-28T03:36:11;23.08;;;15.55;;
23543;SDS011;11950;51.230;4.012;2023-07-28T03:38:38;19.25;;;13.60;;
23543;SDS011;11950;51.230;4.012;2023-07-28T03:41:05;24.27;;;13.07;;
23543;SDS011;11950;51.230;4.012;2023-07-28T03:43:32;18.73;;;11.77;;
23543;SDS011;11950;51.230;4.012;2023-07-28T03:45:59;15.38;;;10.93;;
23543;SDS011;11950;51.230;4.012;2023-07-28T03:48:26;21.88;;;10.68;;
23543;SDS011;11950;51.230;4.012;2023-07-28T03:50:53;15.00;;;10.05;;
23543;SDS011;11950;51.230;4.012;2023-07-28T03:53:19;11.35;;;8.65;;
23543;SDS011;11950;51.230;4.012;2023-07-28T03:55:45;12.50;;;8.63;;
23543;SDS011;11950;51.230;4.012;2023-07-28T03:58:11;12.45;;;8.40;;
23543;SDS011;11950;51.230;4.012;2023-07-28T04:00:37;11.60;;;7.25;;
23543;SDS011;11950;51.230;4.012;2023-07-28T04:03:04;14.23;;;7.45;;
23543;SDS011;11950;51.230;4.012;2023-07-28T04:05:30;11.98;;;8.02;;
23543;SDS011;11950;51.230;4.012;2023-07-28T04:07:56;10.35;;;6.78;;
23543;SDS011;11950;51.230;4.012;2023-07-28T04:10:22;9.18;;;5.00;;
23543;SDS011;11950;51.230;4.012;2023-07-28T04:12:49;7.40;;;5.78;;
23543;SDS011;11950;51.230;4.012;2023-07-28T04:15:15;9.50;;;5.43;;
23543;SDS011;11950;51.230;4.012;2023-07-28T04:17:41;7.25;;;5.60;;
23543;SDS011;11950;51.230;4.012;2023-07-28T04:20:08;8.20;;;5.45;;
23543;SDS011;11950;51.230;4.012;2023-07-28T04:22:34;5.40;;;4.90;;
23543;SDS011;11950;51.230;4.012;2023-07-28T04:25:00;6.00;;;5.28;;
23543;SDS011;11950;51.230;4.012;2023-07-28T04:27:27;6.63;;;5.40;;
23543;SDS011;11950;51.230;4.012;2023-07-28T04:29:57;8.10;;;6.30;;
23543;SDS011;11950;51.230;4.012;2023-07-28T04:32:24;8.77;;;5.72;;
23543;SDS011;11950;51.230;4.012;2023-07-28T04:34:53;9.65;;;6.47;;
23543;SDS011;11950;51.230;4.012;2023-07-28T04:37:39;7.30;;;5.70;;
23543;SDS011;11950;51.230;4.012;2023-07-28T04:40:05;8.02;;;5.72;;
23543;SDS011;11950;51.230;4.012;2023-07-28T04:42:36;8.50;;;6.50;;
23543;SDS011;11950;51.230;4.012;2023-07-28T04:45:03;8.13;;;6.05;;
23543;SDS011;11950;51.230;4.012;2023-07-28T04:47:31;7.50;;;5.93;;
23543;SDS011;11950;51.230;4.012;2023-07-28T04:49:58;9.95;;;5.93;;
23543;SDS011;11950;51.230;4.012;2023-07-28T04:52:42;9.30;;;6.40;;
23543;SDS011;11950;51.230;4.012;2023-07-28T04:55:26;9.88;;;7.68;;
23543;SDS011;11950;51.230;4.012;2023-07-28T04:57:53;8.63;;;6.30;;
23543;SDS011;11950;51.230;4.012;2023-07-28T05:00:22;8.55;;;5.88;;
23543;SDS011;11950;51.230;4.012;2023-07-28T05:02:49;12.70;;;7.03;;
23543;SDS011;11950;51.230;4.012;2023-07-28T05:05:15;9.70;;;6.90;;
23543;SDS011;11950;51.230;4.012;2023-07-28T05:07:41;10.13;;;6.78;;
23543;SDS011;11950;51.230;4.012;2023-07-28T05:10:10;10.50;;;6.43;;
23543;SDS011;11950;51.230;4.012;2023-07-28T05:12:36;10.88;;;7.88;;
23543;SDS011;11950;51.230;4.012;2023-07-28T05:15:03;11.75;;;7.53;;
23543;SDS011;11950;51.230;4.012;2023-07-28T05:17:31;11.95;;;7.10;;
23543;SDS011;11950;51.230;4.012;2023-07-28T05:20:30;10.30;;;6.30;;
23543;SDS011;11950;51.230;4.012;2023-07-28T05:23:11;11.85;;;6.28;;
23543;SDS011;11950;51.230;4.012;2023-07-28T05:25:37;8.18;;;6.53;;
23543;SDS011;11950;51.230;4.012;2023-07-28T05:28:03;8.75;;;6.43;;
23543;SDS011;11950;51.230;4.012;2023-07-28T05:30:32;7.25;;;5.88;;
23543;SDS011;11950;51.230;4.012;2023-07-28T05:32:59;6.30;;;4.85;;
23543;SDS011;11950;51.230;4.012;2023-07-28T05:35:32;6.88;;;4.65;;
23543;SDS011;11950;51.230;4.012;2023-07-28T05:37:59;6.38;;;4.93;;
23543;SDS011;11950;51.230;4.012;2023-07-28T05:40:25;8.10;;;5.15;;
23543;SDS011;11950;51.230;4.012;2023-07-28T05:42:51;7.80;;;4.97;;
23543;SDS011;11950;51.230;4.012;2023-07-28T05:45:17;6.38;;;5.75;;
23543;SDS011;11950;51.230;4.012;2023-07-28T05:47:44;7.30;;;5.75;;
23543;SDS011;11950;51.230;4.012;2023-07-28T05:50:11;10.52;;;6.15;;
23543;SDS011;11950;51.230;4.012;2023-07-28T05:52:37;8.38;;;5.55;;
23543;SDS011;11950;51.230;4.012;2023-07-28T05:55:03;9.57;;;6.00;;
23543;SDS011;11950;51.230;4.012;2023-07-28T05:57:30;9.48;;;6.68;;
23543;SDS011;11950;51.230;4.012;2023-07-28T05:59:59;8.18;;;6.07;;
23543;SDS011;11950;51.230;4.012;2023-07-28T06:02:26;9.43;;;6.63;;
23543;SDS011;11950;51.230;4.012;2023-07-28T06:04:55;6.78;;;6.07;;
23543;SDS011;11950;51.230;4.012;2023-07-28T06:07:21;11.57;;;6.35;;
23543;SDS011;11950;51.230;4.012;2023-07-28T06:09:48;9.13;;;5.50;;
23543;SDS011;11950;51.230;4.012;2023-07-28T06:12:14;8.32;;;5.47;;
23543;SDS011;11950;51.230;4.012;2023-07-28T06:14:42;6.75;;;5.25;;
23543;SDS011;11950;51.230;4.012;2023-07-28T06:17:10;8.32;;;4.50;;
23543;SDS011;11950;51.230;4.012;2023-07-28T06:19:36;8.07;;;4.32;;
23543;SDS011;11950;51.230;4.012;2023-07-28T06:22:02;5.85;;;3.67;;
23543;SDS011;11950;51.230;4.012;2023-07-28T06:24:31;5.25;;;4.13;;
23543;SDS011;11950;51.230;4.012;2023-07-28T06:26:59;8.07;;;4.55;;
23543;SDS011;11950;51.230;4.012;2023-07-28T06:29:25;6.72;;;4.30;;
23543;SDS011;11950;51.230;4.012;2023-07-28T06:31:52;6.55;;;5.07;;
23543;SDS011;11950;51.230;4.012;2023-07-28T06:34:18;11.43;;;5.95;;
23543;SDS011;11950;51.230;4.012;2023-07-28T06:36:44;6.57;;;5.43;;
23543;SDS011;11950;51.230;4.012;2023-07-28T06:39:10;9.90;;;6.00;;
23543;SDS011;11950;51.230;4.012;2023-07-28T06:41:37;8.40;;;6.53;;
23543;SDS011;11950;51.230;4.012;2023-07-28T06:44:07;7.85;;;6.28;;
23543;SDS011;11950;51.230;4.012;2023-07-28T06:46:34;11.43;;;7.65;;
23543;SDS011;11950;51.230;4.012;2023-07-28T06:49:01;12.40;;;7.93;;
23543;SDS011;11950;51.230;4.012;2023-07-28T06:51:27;10.55;;;6.50;;
23543;SDS011;11950;51.230;4.012;2023-07-28T06:53:53;12.85;;;6.85;;
23543;SDS011;11950;51.230;4.012;2023-07-28T06:56:20;7.28;;;6.22;;
23543;SDS011;11950;51.230;4.012;2023-07-28T06:58:46;7.88;;;5.90;;
23543;SDS011;11950;51.230;4.012;2023-07-28T07:01:12;4.85;;;4.40;;
23543;SDS011;11950;51.230;4.012;2023-07-28T07:03:38;6.68;;;5.03;;
23543;SDS011;11950;51.230;4.012;2023-07-28T07:06:05;7.57;;;4.82;;
23543;SDS011;11950;51.230;4.012;2023-07-28T07:08:34;6.15;;;4.57;;
23543;SDS011;11950;51.230;4.012;2023-07-28T07:11:00;5.00;;;4.55;;
23543;SDS011;11950;51.230;4.012;2023-07-28T07:13:26;7.53;;;4.90;;
23543;SDS011;11950;51.230;4.012;2023-07-28T07:15:52;9.63;;;6.20;;
23543;SDS011;11950;51.230;4.012;2023-07-28T07:18:19;7.07;;;6.43;;
23543;SDS011;11950;51.230;4.012;2023-07-28T07:20:45;8.07;;;6.80;;
23543;SDS011;11950;51.230;4.012;2023-07-28T07:23:11;9.93;;;7.60;;
23543;SDS011;11950;51.230;4.012;2023-07-28T07:25:38;8.20;;;6.88;;
23543;SDS011;11950;51.230;4.012;2023-07-28T07:28:05;8.18;;;6.85;;
23543;SDS011;11950;51.230;4.012;2023-07-28T07:30:32;8.35;;;7.43;;
23543;SDS011;11950;51.230;4.012;2023-07-28T07:32:59;8.35;;;7.30;;
23543;SDS011;11950;51.230;4.012;2023-07-28T07:35:25;9.88;;;7.45;;
23543;SDS011;11950;51.230;4.012;2023-07-28T07:37:52;14.15;;;10.02;;
23543;SDS011;11950;51.230;4.012;2023-07-28T07:40:18;12.57;;;9.98;;
23543;SDS011;11950;51.230;4.012;2023-07-28T07:42:47;12.20;;;10.15;;
23543;SDS011;11950;51.230;4.012;2023-07-28T07:45:14;15.73;;;10.77;;
23543;SDS011;11950;51.230;4.012;2023-07-28T07:47:41;14.95;;;11.02;;
23543;SDS011;11950;51.230;4.012;2023-07-28T07:50:08;13.63;;;11.43;;
23543;SDS011;11950;51.230;4.012;2023-07-28T07:52:36;18.60;;;12.30;;
23543;SDS011;11950;51.230;4.012;2023-07-28T07:55:03;17.33;;;13.73;;
23543;SDS011;11950;51.230;4.012;2023-07-28T07:57:30;20.00;;;13.85;;
23543;SDS011;11950;51.230;4.012;2023-07-28T07:59:59;21.45;;;15.23;;
23543;SDS011;11950;51.230;4.012;2023-07-28T08:02:26;25.23;;;16.70;;
23543;SDS011;11950;51.230;4.012;2023-07-28T08:04:52;25.38;;;17.27;;
23543;SDS011;11950;51.230;4.012;2023-07-28T08:07:19;23.33;;;16.50;;
23543;SDS011;11950;51.230;4.012;2023-07-28T08:09:46;21.35;;;15.35;;
23543;SDS011;11950;51.230;4.012;2023-07-28T08:12:12;18.67;;;15.10;;
23543;SDS011;11950;51.230;4.012;2023-07-28T08:14:40;21.10;;;15.27;;
23543;SDS011;11950;51.230;4.012;2023-07-28T08:17:07;30.05;;;16.70;;
23543;SDS011;11950;51.230;4.012;2023-07-28T08:19:34;29.48;;;18.80;;
23543;SDS011;11950;51.230;4.012;2023-07-28T08:22:01;28.08;;;18.58;;
23543;SDS011;11950;51.230;4.012;2023-07-28T08:24:29;31.27;;;21.02;;
23543;SDS011;11950;51.230;4.012;2023-07-28T08:26:56;36.13;;;20.42;;
23543;SDS011;11950;51.230;4.012;2023-07-28T08:29:23;33.42;;;20.65;;
23543;SDS011;11950;51.230;4.012;2023-07-28T08:31:49;34.95;;;20.38;;
23543;SDS011;11950;51.230;4.012;2023-07-28T08:34:16;25.33;;;16.52;;
23543;SDS011;11950;51.230;4.012;2023-07-28T08:36:43;21.73;;;14.40;;
23543;SDS011;11950;51.230;4.012;2023-07-28T08:39:09;21.15;;;13.00;;
23543;SDS011;11950;51.230;4.012;2023-07-28T08:41:36;18.55;;;13.40;;
23543;SDS011;11950;51.230;4.012;2023-07-28T08:44:02;21.17;;;15.07;;
23543;SDS011;11950;51.230;4.012;2023-07-28T08:46:29;26.80;;;15.05;;
23543;SDS011;11950;51.230;4.012;2023-07-28T08:48:55;25.92;;;15.35;;
23543;SDS011;11950;51.230;4.012;2023-07-28T08:51:22;21.50;;;14.82;;
23543;SDS011;11950;51.230;4.012;2023-07-28T08:53:49;23.92;;;15.73;;
23543;SDS011;11950;51.230;4.012;2023-07-28T08:56:15;24.02;;;15.65;;
23543;SDS011;11950;51.230;4.012;2023-07-28T08:58:41;22.73;;;14.93;;
23543;SDS011;11950;51.230;4.012;2023-07-28T09:01:07;25.30;;;15.45;;
23543;SDS011;11950;51.230;4.012;2023-07-28T09:03:34;21.52;;;16.10;;
23543;SDS011;11950;51.230;4.012;2023-07-28T09:06:06;24.85;;;17.52;;
23543;SDS011;11950;51.230;4.012;2023-07-28T09:08:36;24.85;;;17.20;;
23543;SDS011;11950;51.230;4.012;2023-07-28T09:11:03;21.13;;;16.42;;
23543;SDS011;11950;51.230;4.012;2023-07-28T09:13:35;19.10;;;13.45;;
23543;SDS011;11950;51.230;4.012;2023-07-28T09:16:16;18.95;;;12.13;;
23543;SDS011;11950;51.230;4.012;2023-07-28T09:18:44;12.38;;;10.05;;
23543;SDS011;11950;51.230;4.012;2023-07-28T09:21:17;14.65;;;9.25;;
23543;SDS011;11950;51.230;4.012;2023-07-28T09:23:46;15.38;;;9.20;;
23543;SDS011;11950;51.230;4.012;2023-07-28T09:26:14;13.35;;;8.55;;
23543;SDS011;11950;51.230;4.012;2023-07-28T09:28:41;10.45;;;7.72;;
23543;SDS011;11950;51.230;4.012;2023-07-28T09:31:08;10.55;;;6.38;;
23543;SDS011;11950;51.230;4.012;2023-07-28T09:33:36;10.38;;;7.22;;
23543;SDS011;11950;51.230;4.012;2023-07-28T09:36:10;8.38;;;6.65;;
23543;SDS011;11950;51.230;4.012;2023-07-28T09:38:39;7.80;;;6.32;;
23543;SDS011;11950;51.230;4.012;2023-07-28T09:41:07;8.32;;;6.32;;
23543;SDS011;11950;51.230;4.012;2023-07-28T09:43:36;8.43;;;6.50;;
23543;SDS011;11950;51.230;4.012;2023-07-28T09:46:07;7.57;;;6.63;;
23543;SDS011;11950;51.230;4.012;2023-07-28T09:48:37;9.10;;;7.13;;
23543;SDS011;11950;51.230;4.012;2023-07-28T09:51:06;10.20;;;7.78;;
23543;SDS011;11950;51.230;4.012;2023-07-28T09:53:40;10.18;;;7.03;;
23543;SDS011;11950;51.230;4.012;2023-07-28T09:56:13;11.00;;;7.65;;
23543;SDS011;11950;51.230;4.012;2023-07-28T09:58:44;7.57;;;6.05;;
23543;SDS011;11950;51.230;4.012;2023-07-28T10:01:15;6.40;;;5.28;;
23543;SDS011;11950;51.230;4.012;2023-07-28T10:03:41;6.65;;;4.50;;
23543;SDS011;11950;51.230;4.012;2023-07-28T10:06:09;10.75;;;5.53;;
23543;SDS011;11950;51.230;4.012;2023-07-28T10:08:35;8.50;;;5.38;;
23543;SDS011;11950;51.230;4.012;2023-07-28T10:11:03;7.50;;;5.70;;
23543;SDS011;11950;51.230;4.012;2023-07-28T10:13:36;7.00;;;6.10;;
23543;SDS011;11950;51.230;4.012;2023-07-28T10:16:06;6.95;;;5.68;;
23543;SDS011;11950;51.230;4.012;2023-07-28T10:18:34;5.90;;;4.70;;
23543;SDS011;11950;51.230;4.012;2023-07-28T10:21:05;9.05;;;4.75;;
23543;SDS011;11950;51.230;4.012;2023-07-28T10:23:33;5.22;;;4.25;;
23543;SDS011;11950;51.230;4.012;2023-07-28T10:26:03;4.72;;;3.78;;
23543;SDS011;11950;51.230;4.012;2023-07-28T10:28:35;5.75;;;3.85;;
23543;SDS011;11950;51.230;4.012;2023-07-28T10:31:11;4.05;;;3.60;;
23543;SDS011;11950;51.230;4.012;2023-07-28T10:33:39;3.95;;;3.50;;
23543;SDS011;11950;51.230;4.012;2023-07-28T10:36:15;4.47;;;2.85;;
23543;SDS011;11950;51.230;4.012;2023-07-28T10:44:35;6.88;;;2.10;;
23543;SDS011;11950;51.230;4.012;2023-07-28T10:47:02;2.17;;;1.60;;
23543;SDS011;11950;51.230;4.012;2023-07-28T10:49:33;2.38;;;2.20;;
23543;SDS011;11950;51.230;4.012;2023-07-28T10:51:59;5.05;;;2.10;;
23543;SDS011;11950;51.230;4.012;2023-07-28T10:54:26;3.08;;;2.10;;
23543;SDS011;11950;51.230;4.012;2023-07-28T10:56:52;2.85;;;2.10;;
23543;SDS011;11950;51.230;4.012;2023-07-28T10:59:19;3.83;;;2.30;;
23543;SDS011;11950;51.230;4.012;2023-07-28T11:01:45;3.53;;;2.20;;
23543;SDS011;11950;51.230;4.012;2023-07-28T11:04:12;3.45;;;1.73;;
23543;SDS011;11950;51.230;4.012;2023-07-28T11:06:46;2.45;;;2.20;;
23543;SDS011;11950;51.230;4.012;2023-07-28T11:09:14;1.85;;;1.75;;
23543;SDS011;11950;51.230;4.012;2023-07-28T11:11:42;3.28;;;1.85;;
23543;SDS011;11950;51.230;4.012;2023-07-28T11:14:09;3.47;;;1.52;;
23543;SDS011;11950;51.230;4.012;2023-07-28T11:16:36;2.97;;;1.50;;
23543;SDS011;11950;51.230;4.012;2023-07-28T11:19:08;5.10;;;1.67;;
23543;SDS011;11950;51.230;4.012;2023-07-28T11:21:36;3.13;;;1.40;;
23543;SDS011;11950;51.230;4.012;2023-07-28T11:24:04;1.35;;;1.25;;
23543;SDS011;11950;51.230;4.012;2023-07-28T11:26:31;1.50;;;1.15;;
23543;SDS011;11950;51.230;4.012;2023-07-28T11:28:58;2.05;;;0.98;;
23543;SDS011;11950;51.230;4.012;2023-07-28T11:31:25;4.95;;;1.20;;
23543;SDS011;11950;51.230;4.012;2023-07-28T11:33:52;2.58;;;1.42;;
23543;SDS011;11950;51.230;4.012;2023-07-28T11:36:27;1.90;;;1.35;;
23543;SDS011;11950;51.230;4.012;2023-07-28T11:38:55;3.40;;;1.38;;
23543;SDS011;11950;51.230;4.012;2023-07-28T11:41:23;2.80;;;1.35;;
23543;SDS011;11950;51.230;4.012;2023-07-28T11:43:51;3.80;;;1.20;;
23543;SDS011;11950;51.230;4.012;2023-07-28T11:46:34;1.98;;;1.30;;
23543;SDS011;11950;51.230;4.012;2023-07-28T11:49:17;3.22;;;1.00;;
23543;SDS011;11950;51.230;4.012;2023-07-28T11:51:48;2.22;;;0.90;;
23543;SDS011;11950;51.230;4.012;2023-07-28T11:54:22;1.15;;;0.80;;
23543;SDS011;11950;51.230;4.012;2023-07-28T11:56:51;2.10;;;1.00;;
23543;SDS011;11950;51.230;4.012;2023-07-28T11:59:21;1.83;;;1.10;;
23543;SDS011;11950;51.230;4.012;2023-07-28T12:01:57;1.90;;;0.70;;
23543;SDS011;11950;51.230;4.012;2023-07-28T12:09:26;2.80;;;0.60;;
23543;SDS011;11950;51.230;4.012;2023-07-28T12:11:52;0.60;;;0.60;;
23543;SDS011;11950;51.230;4.012;2023-07-28T12:14:34;2.47;;;0.63;;
23543;SDS011;11950;51.230;4.012;2023-07-28T12:17:01;2.85;;;0.70;;
23543;SDS011;11950;51.230;4.012;2023-07-28T12:19:28;2.22;;;0.70;;
23543;SDS011;11950;51.230;4.012;2023-07-28T12:21:54;2.17;;;0.70;;
23543;SDS011;11950;51.230;4.012;2023-07-28T12:24:20;2.33;;;1.00;;
23543;SDS011;11950;51.230;4.012;2023-07-28T12:26:47;1.95;;;0.80;;
23543;SDS011;11950;51.230;4.012;2023-07-28T12:29:15;1.83;;;0.80;;
23543;SDS011;11950;51.230;4.012;2023-07-28T12:31:42;3.20;;;0.95;;
23543;SDS011;11950;51.230;4.012;2023-07-28T12:34:08;3.17;;;1.00;;
23543;SDS011;11950;51.230;4.012;2023-07-28T12:36:34;0.90;;;0.90;;
23543;SDS011;11950;51.230;4.012;2023-07-28T12:39:01;1.20;;;0.75;;
23543;SDS011;11950;51.230;4.012;2023-07-28T12:41:27;1.30;;;0.98;;
23543;SDS011;11950;51.230;4.012;2023-07-28T12:43:53;2.35;;;0.80;;
23543;SDS011;11950;51.230;4.012;2023-07-28T12:46:19;0.75;;;0.75;;
23543;SDS011;11950;51.230;4.012;2023-07-28T12:48:46;2.97;;;0.77;;
23543;SDS011;11950;51.230;4.012;2023-07-28T12:51:12;1.75;;;0.80;;
23543;SDS011;11950;51.230;4.012;2023-07-28T12:53:38;2.67;;;0.90;;
23543;SDS011;11950;51.230;4.012;2023-07-28T12:56:07;5.05;;;0.85;;
23543;SDS011;11950;51.230;4.012;2023-07-28T12:58:33;5.03;;;0.90;;
23543;SDS011;11950;51.230;4.012;2023-07-28T13:00:59;4.65;;;1.20;;
23543;SDS011;11950;51.230;4.012;2023-07-28T13:03:27;2.83;;;0.85;;
23543;SDS011;11950;51.230;4.012;2023-07-28T13:05:53;1.27;;;0.90;;
23543;SDS011;11950;51.230;4.012;2023-07-28T13:08:20;3.28;;;0.88;;
23543;SDS011;11950;51.230;4.012;2023-07-28T13:10:46;3.10;;;0.90;;
23543;SDS011;11950;51.230;4.012;2023-07-28T13:13:12;5.68;;;0.60;;
23543;SDS011;11950;51.230;4.012;2023-07-28T13:15:38;1.02;;;0.80;;
23543;SDS011;11950;51.230;4.012;2023-07-28T13:18:05;1.00;;;1.00;;
23543;SDS011;11950;51.230;4.012;2023-07-28T13:20:31;1.77;;;0.95;;
23543;SDS011;11950;51.230;4.012;2023-07-28T13:22:57;3.35;;;1.20;;
23543;SDS011;11950;51.230;4.012;2023-07-28T13:25:23;1.58;;;1.33;;
23543;SDS011;11950;51.230;4.012;2023-07-28T13:27:50;2.55;;;1.10;;
23543;SDS011;11950;51.230;4.012;2023-07-28T13:30:16;5.07;;;1.20;;
23543;SDS011;11950;51.230;4.012;2023-07-28T13:32:42;2.67;;;1.33;;
23543;SDS011;11950;51.230;4.012;2023-07-28T13:35:08;2.53;;;1.08;;
23543;SDS011;11950;51.230;4.012;2023-07-28T13:37:35;2.33;;;1.10;;
23543;SDS011;11950;51.230;4.012;2023-07-28T13:40:01;3.08;;;1.20;;
23543;SDS011;11950;51.230;4.012;2023-07-28T13:42:27;2.08;;;1.10;;
23543;SDS011;11950;51.230;4.012;2023-07-28T13:44:53;2.92;;;1.20;;
23543;SDS011;11950;51.230;4.012;2023-07-28T13:47:20;2.88;;;1.40;;
23543;SDS011;11950;51.230;4.012;2023-07-28T13:49:46;4.43;;;1.30;;
23543;SDS011;11950;51.230;4.012;2023-07-28T13:52:12;4.88;;;1.42;;
23543;SDS011;11950;51.230;4.012;2023-07-28T13:54:38;2.15;;;1.30;;
23543;SDS011;11950;51.230;4.012;2023-07-28T13:57:05;1.75;;;1.00;;
23543;SDS011;11950;51.230;4.012;2023-07-28T13:59:31;2.08;;;1.20;;
23543;SDS011;11950;51.230;4.012;2023-07-28T14:01:58;2.85;;;1.00;;
23543;SDS011;11950;51.230;4.012;2023-07-28T14:04:24;4.65;;;1.33;;
23543;SDS011;11950;51.230;4.012;2023-07-28T14:06:50;4.07;;;1.08;;
23543;SDS011;11950;51.230;4.012;2023-07-28T14:09:16;3.17;;;0.80;;
23543;SDS011;11950;51.230;4.012;2023-07-28T14:11:43;2.45;;;0.90;;
23543;SDS011;11950;51.230;4.012;2023-07-28T14:14:09;1.60;;;0.90;;
23543;SDS011;11950;51.230;4.012;2023-07-28T14:16:35;3.85;;;0.80;;
23543;SDS011;11950;51.230;4.012;2023-07-28T14:19:01;2.72;;;1.00;;
23543;SDS011;11950;51.230;4.012;2023-07-28T14:21:28;2.15;;;0.88;;
23543;SDS011;11950;51.230;4.012;2023-07-28T14:23:54;1.48;;;0.80;;
23543;SDS011;11950;51.230;4.012;2023-07-28T14:26:21;1.25;;;0.90;;
23543;SDS011;11950;51.230;4.012;2023-07-28T14:28:47;3.30;;;0.90;;
23543;SDS011;11950;51.230;4.012;2023-07-28T14:31:13;2.72;;;1.05;;
23543;SDS011;11950;51.230;4.012;2023-07-28T14:33:39;1.83;;;0.60;;
23543;SDS011;11950;51.230;4.012;2023-07-28T14:36:05;3.80;;;0.70;;
23543;SDS011;11950;51.230;4.012;2023-07-28T14:38:32;3.47;;;0.90;;
23543;SDS011;11950;51.230;4.012;2023-07-28T14:40:58;3.00;;;0.90;;
23543;SDS011;11950;51.230;4.012;2023-07-28T14:43:24;0.90;;;0.80;;
23543;SDS011;11950;51.230;4.012;2023-07-28T14:45:51;1.50;;;0.90;;
23543;SDS011;11950;51.230;4.012;2023-07-28T14:48:17;1.85;;;0.90;;
23543;SDS011;11950;51.230;4.012;2023-07-28T14:50:43;1.83;;;0.80;;
23543;SDS011;11950;51.230;4.012;2023-07-28T14:53:29;2.00;;;0.82;;
23543;SDS011;11950;51.230;4.012;2023-07-28T14:56:03;6.57;;;2.45;;
23543;SDS011;11950;51.230;4.012;2023-07-28T14:58:30;2.50;;;1.27;;
23543;SDS011;11950;51.230;4.012;2023-07-28T15:00:57;2.28;;;1.30;;
23543;SDS011;11950;51.230;4.012;2023-07-28T15:03:26;4.03;;;1.20;;